createdAt,value
2018-07-24T00:00:14.194Z,3.70
2018-07-24T00:02:41.952Z,3.27
2018-07-24T00:05:09.681Z,3.67
2018-07-24T00:07:37.971Z,3.63
2018-07-24T00:10:05.903Z,3.17
2018-07-24T00:12:33.961Z,3.30
2018-07-24T00:15:01.688Z,3.90
2018-07-24T00:17:29.366Z,3.30
2018-07-24T00:19:57.390Z,3.03
2018-07-24T00:22:25.396Z,3.20
2018-07-24T00:24:53.119Z,3.60
2018-07-24T00:27:21.389Z,3.80
2018-07-24T00:29:49.116Z,3.13
2018-07-24T00:32:16.963Z,3.27
2018-07-24T00:34:44.611Z,3.30
2018-07-24T00:37:12.274Z,3.30
2018-07-24T00:39:40.183Z,3.60
2018-07-24T00:42:08.192Z,3.70
2018-07-24T00:44:35.903Z,2.90
2018-07-24T00:47:03.681Z,3.50
2018-07-24T00:49:31.790Z,4.03
2018-07-24T00:51:59.527Z,4.00
2018-07-24T00:54:27.876Z,3.37
2018-07-24T00:56:55.621Z,3.80
2018-07-24T00:59:23.553Z,3.97
2018-07-24T01:01:51.498Z,3.40
2018-07-24T01:04:19.155Z,3.40
2018-07-24T01:06:47.610Z,3.77
2018-07-24T01:09:15.287Z,3.90
2018-07-24T01:11:43.017Z,3.57
2018-07-24T01:14:10.853Z,4.30
2018-07-24T01:16:38.572Z,3.00
2018-07-24T01:19:06.333Z,4.03
2018-07-24T01:21:34.427Z,3.50
2018-07-24T01:24:02.153Z,4.03
2018-07-24T01:26:30.134Z,3.73
2018-07-24T01:28:58.361Z,4.63
2018-07-24T01:31:26.358Z,3.77
2018-07-24T01:33:54.376Z,4.60
2018-07-24T01:36:22.116Z,3.97
2018-07-24T01:38:49.810Z,3.90
2018-07-24T01:41:17.530Z,4.50
2018-07-24T01:43:45.467Z,4.20
2018-07-24T01:46:13.120Z,4.30
2018-07-24T01:48:40.805Z,3.87
2018-07-24T01:51:08.512Z,3.73
2018-07-24T01:53:36.286Z,4.50
2018-07-24T01:56:04.241Z,4.50
2018-07-24T01:58:32.269Z,3.70
2018-07-24T02:01:02.203Z,3.27
2018-07-24T02:03:30.610Z,4.90
2018-07-24T02:05:58.336Z,4.03
2018-07-24T02:08:26.096Z,3.43
2018-07-24T02:10:53.802Z,4.47
2018-07-24T02:13:21.770Z,4.37
2018-07-24T02:15:49.857Z,3.60
2018-07-24T02:18:17.535Z,3.93
2018-07-24T02:20:45.244Z,4.50
2018-07-24T02:23:13.162Z,4.23
2018-07-24T02:25:41.147Z,3.67
2018-07-24T02:28:09.610Z,3.80
2018-07-24T02:30:37.717Z,3.83
2018-07-24T02:33:05.486Z,3.90
2018-07-24T02:35:33.489Z,3.83
2018-07-24T02:38:01.855Z,4.40
2018-07-24T02:40:29.559Z,3.63
2018-07-24T02:42:57.537Z,3.90
2018-07-24T02:45:25.527Z,4.07
2018-07-24T02:47:53.721Z,3.83
2018-07-24T02:50:21.385Z,4.50
2018-07-24T02:52:49.683Z,4.10
2018-07-24T02:55:17.706Z,3.53
2018-07-24T02:57:45.730Z,3.97
2018-07-24T03:00:13.684Z,3.43
2018-07-24T03:02:41.433Z,3.90
2018-07-24T03:05:09.378Z,3.87
2018-07-24T03:07:37.683Z,4.03
2018-07-24T03:10:05.776Z,4.50
2018-07-24T03:12:33.657Z,4.30
2018-07-24T03:15:01.344Z,3.30
2018-07-24T03:17:29.388Z,4.07
2018-07-24T03:19:57.090Z,3.90
2018-07-24T03:22:24.740Z,4.13
2018-07-24T03:24:53.110Z,4.00
2018-07-24T03:27:20.792Z,3.33
2018-07-24T03:29:48.766Z,4.30
2018-07-24T03:32:17.011Z,3.50
2018-07-24T03:34:45.034Z,4.40
2018-07-24T03:37:12.762Z,4.23
2018-07-24T03:39:41.060Z,3.80
2018-07-24T03:42:08.743Z,4.07
2018-07-24T03:44:37.138Z,4.00
2018-07-24T03:47:04.956Z,4.03
2018-07-24T03:49:32.746Z,4.70
2018-07-24T03:52:00.483Z,4.00
2018-07-24T03:54:28.141Z,4.20
2018-07-24T03:56:55.863Z,4.37
2018-07-24T03:59:23.935Z,4.23
2018-07-24T04:01:51.678Z,4.27
2018-07-24T04:04:19.638Z,4.13
2018-07-24T04:06:47.337Z,4.60
2018-07-24T04:09:15.045Z,4.33
2018-07-24T04:11:42.762Z,4.47
2018-07-24T04:14:10.945Z,4.80
2018-07-24T04:16:39.229Z,4.40
2018-07-24T04:19:07.531Z,4.60
2018-07-24T04:21:35.515Z,4.80
2018-07-24T04:24:03.230Z,3.90
2018-07-24T04:26:31.717Z,5.00
2018-07-24T04:28:59.397Z,5.17
2018-07-24T04:31:27.409Z,4.90
2018-07-24T04:33:55.368Z,5.03
2018-07-24T04:36:23.013Z,3.77
2018-07-24T04:41:32.485Z,4.50
2018-07-24T04:44:00.451Z,4.70
2018-07-24T04:46:28.145Z,4.83
2018-07-24T04:48:55.796Z,4.30
2018-07-24T04:51:23.421Z,4.80
2018-07-24T04:53:51.364Z,5.50
2018-07-24T04:56:19.273Z,5.23
2018-07-24T04:58:46.906Z,4.53
2018-07-24T05:01:14.702Z,5.03
2018-07-24T05:03:42.409Z,5.47
2018-07-24T05:06:10.538Z,5.20
2018-07-24T05:08:38.187Z,5.40
2018-07-24T05:11:06.044Z,5.03
2018-07-24T05:13:33.922Z,5.13
2018-07-24T05:16:01.937Z,5.40
2018-07-24T05:18:29.850Z,6.17
2018-07-24T05:20:57.525Z,5.33
2018-07-24T05:23:26.560Z,5.13
2018-07-24T05:25:54.302Z,5.53
2018-07-24T05:28:21.989Z,5.07
2018-07-24T05:30:49.714Z,4.90
2018-07-24T05:33:17.682Z,4.70
2018-07-24T05:35:45.909Z,5.30
2018-07-24T05:38:13.609Z,4.50
2018-07-24T05:40:41.377Z,5.20
2018-07-24T05:43:09.053Z,5.30
2018-07-24T05:45:36.689Z,5.63
2018-07-24T05:48:04.851Z,6.03
2018-07-24T05:50:32.561Z,5.50
2018-07-24T05:53:00.241Z,6.33
2018-07-24T05:55:28.563Z,5.10
2018-07-24T05:57:56.651Z,5.73
2018-07-24T06:00:24.903Z,6.03
2018-07-24T06:02:52.636Z,5.10
2018-07-24T06:05:20.401Z,4.60
2018-07-24T06:07:48.386Z,4.93
2018-07-24T06:10:16.147Z,4.87
2018-07-24T06:12:44.133Z,5.43
2018-07-24T06:15:12.100Z,5.03
2018-07-24T06:17:40.274Z,5.50
2018-07-24T06:20:09.562Z,5.57
2018-07-24T06:22:37.748Z,6.47
2018-07-24T06:25:05.387Z,8.30
2018-07-24T06:27:33.602Z,7.77
2018-07-24T06:30:01.267Z,6.90
2018-07-24T06:32:28.949Z,6.13
2018-07-24T06:34:56.976Z,6.10
2018-07-24T06:37:24.636Z,6.70
2018-07-24T06:39:52.745Z,5.20
2018-07-24T06:42:20.401Z,5.50
2018-07-24T06:44:48.557Z,4.90
2018-07-24T06:47:16.235Z,4.77
2018-07-24T06:49:44.674Z,4.90
2018-07-24T06:54:47.014Z,5.67
2018-07-24T06:57:14.997Z,4.30
2018-07-24T06:59:43.108Z,5.20
2018-07-24T07:02:10.809Z,5.30
2018-07-24T07:04:38.765Z,4.50
2018-07-24T07:07:07.170Z,5.20
2018-07-24T07:09:34.806Z,4.70
2018-07-24T07:12:02.556Z,4.70
2018-07-24T07:14:30.651Z,4.70
2018-07-24T07:16:58.330Z,4.63
2018-07-24T07:19:25.981Z,5.03
2018-07-24T07:21:53.682Z,4.97
2018-07-24T07:24:21.810Z,4.60
2018-07-24T07:26:49.460Z,4.87
2018-07-24T07:29:17.577Z,4.23
2018-07-24T07:31:45.249Z,4.63
2018-07-24T07:34:12.885Z,3.80
2018-07-24T07:36:40.632Z,4.70
2018-07-24T07:39:09.401Z,4.40
2018-07-24T07:41:37.054Z,4.63
2018-07-24T07:44:04.795Z,3.93
2018-07-24T07:46:32.478Z,4.13
2018-07-24T07:49:00.550Z,4.07
2018-07-24T07:51:28.541Z,3.80
2018-07-24T07:53:56.403Z,3.93
2018-07-24T07:56:24.572Z,4.07
2018-07-24T07:58:52.546Z,4.00
2018-07-24T08:01:20.787Z,3.80
2018-07-24T08:03:49.122Z,4.30
2018-07-24T08:06:17.035Z,4.50
2018-07-24T08:08:45.170Z,4.00
2018-07-24T08:11:12.926Z,4.80
2018-07-24T08:13:40.570Z,4.40
2018-07-24T08:16:08.418Z,4.50
2018-07-24T08:18:36.360Z,4.10
2018-07-24T08:21:04.073Z,3.90
2018-07-24T08:23:31.776Z,3.93
2018-07-24T08:25:59.878Z,3.77
2018-07-24T08:28:27.519Z,3.93
2018-07-24T08:30:55.657Z,4.47
2018-07-24T08:33:23.348Z,4.13
2018-07-24T08:35:51.357Z,4.63
2018-07-24T08:38:19.613Z,3.93
2018-07-24T08:40:47.325Z,4.00
2018-07-24T08:43:15.056Z,4.10
2018-07-24T08:45:43.066Z,3.90
2018-07-24T08:48:10.718Z,3.97
2018-07-24T08:50:38.487Z,4.20
2018-07-24T08:53:06.580Z,3.83
2018-07-24T08:55:34.984Z,4.10
2018-07-24T08:58:02.481Z,4.40
2018-07-24T09:00:30.490Z,3.47
2018-07-24T09:02:58.435Z,3.87
2018-07-24T09:05:26.672Z,3.60
2018-07-24T09:07:54.349Z,4.47
2018-07-24T09:10:22.378Z,3.77
2018-07-24T09:12:50.344Z,3.90
2018-07-24T09:15:18.319Z,3.77
2018-07-24T09:17:45.929Z,4.10
2018-07-24T09:20:14.314Z,3.93
2018-07-24T09:22:41.951Z,3.90
2018-07-24T09:25:09.838Z,3.53
2018-07-24T09:27:37.515Z,4.47
2018-07-24T09:30:05.224Z,3.80
2018-07-24T09:32:33.090Z,4.80
2018-07-24T09:35:00.957Z,4.20
2018-07-24T09:37:29.148Z,3.53
2018-07-24T09:39:56.895Z,4.07
2018-07-24T09:42:24.849Z,3.40
2018-07-24T09:44:52.722Z,3.77
2018-07-24T09:47:20.353Z,3.80
2018-07-24T09:49:47.978Z,4.60
2018-07-24T09:52:15.939Z,3.37
2018-07-24T09:54:43.549Z,4.07
2018-07-24T09:57:11.353Z,3.77
2018-07-24T09:59:39.506Z,3.83
2018-07-24T10:02:07.752Z,4.40
2018-07-24T10:04:35.702Z,3.73
2018-07-24T10:07:03.577Z,4.00
2018-07-24T10:09:31.445Z,4.00
2018-07-24T10:11:59.061Z,4.93
2018-07-24T10:14:27.441Z,3.80
2018-07-24T10:16:56.188Z,3.67
2018-07-24T10:19:24.995Z,4.37
2018-07-24T10:21:53.131Z,4.67
2018-07-24T10:24:21.419Z,3.97
2018-07-24T10:26:49.255Z,3.67
2018-07-24T10:29:16.915Z,4.20
2018-07-24T10:31:44.887Z,3.70
2018-07-24T10:34:12.640Z,4.33
2018-07-24T10:36:40.264Z,3.90
2018-07-24T10:39:09.758Z,3.27
2018-07-24T10:41:37.454Z,4.20
2018-07-24T10:44:05.226Z,4.50
2018-07-24T10:46:33.169Z,4.13
2018-07-24T10:49:00.863Z,3.80
2018-07-24T10:51:28.480Z,4.63
2018-07-24T10:53:56.085Z,3.83
2018-07-24T10:56:24.150Z,3.60
2018-07-24T10:58:51.990Z,4.47
2018-07-24T11:01:20.180Z,3.90
2018-07-24T11:03:47.886Z,4.17
2018-07-24T11:06:15.520Z,4.30
2018-07-24T11:08:43.719Z,3.73
2018-07-24T11:11:11.687Z,4.27
2018-07-24T11:13:39.829Z,3.70
2018-07-24T11:16:07.496Z,3.70
2018-07-24T11:18:35.160Z,4.33
2018-07-24T11:21:02.809Z,4.10
2018-07-24T11:23:30.566Z,3.87
2018-07-24T11:25:58.703Z,3.63
2018-07-24T11:28:26.598Z,4.27
2018-07-24T11:30:54.220Z,3.80
2018-07-24T11:33:21.854Z,4.20
2018-07-24T11:35:49.562Z,3.50
2018-07-24T11:38:17.237Z,3.60
2018-07-24T11:40:45.092Z,3.80
2018-07-24T11:43:13.278Z,3.53
2018-07-24T11:45:41.261Z,3.47
2018-07-24T11:48:09.211Z,3.97
2018-07-24T11:50:36.850Z,4.10
2018-07-24T11:53:04.509Z,4.17
2018-07-24T11:55:32.185Z,4.23
2018-07-24T11:57:59.813Z,4.63
2018-07-24T12:00:27.673Z,3.70
2018-07-24T12:02:55.879Z,4.97
2018-07-24T12:05:23.826Z,3.70
2018-07-24T12:07:51.522Z,3.47
2018-07-24T12:10:19.177Z,3.83
2018-07-24T12:12:47.367Z,4.03
2018-07-24T12:15:15.874Z,3.93
2018-07-24T12:17:43.445Z,3.90
2018-07-24T12:20:11.728Z,3.50
2018-07-24T12:22:40.096Z,3.50
2018-07-24T12:25:07.748Z,3.50
2018-07-24T12:27:35.424Z,3.57
2018-07-24T12:30:03.177Z,3.40
2018-07-24T12:32:31.426Z,3.67
2018-07-24T12:34:59.110Z,3.40
2018-07-24T12:37:26.724Z,3.27
2018-07-24T12:39:54.401Z,3.07
2018-07-24T12:42:22.457Z,3.00
2018-07-24T12:44:50.092Z,3.00
2018-07-24T12:47:17.797Z,3.50
2018-07-24T12:49:45.748Z,3.40
2018-07-24T12:52:13.396Z,3.97
2018-07-24T12:54:41.826Z,3.80
2018-07-24T12:57:09.455Z,3.57
2018-07-24T12:59:37.074Z,3.27
2018-07-24T13:02:04.851Z,3.30
2018-07-24T13:04:32.392Z,3.40
2018-07-24T13:07:00.583Z,3.90
2018-07-24T13:09:28.310Z,3.27
2018-07-24T13:11:56.490Z,3.60
2018-07-24T13:14:24.610Z,3.40
2018-07-24T13:16:52.277Z,3.27
2018-07-24T13:19:20.334Z,3.07
2018-07-24T13:21:48.039Z,3.10
2018-07-24T13:24:15.669Z,3.37
2018-07-24T13:26:43.347Z,2.80
2018-07-24T13:29:11.156Z,3.50
2018-07-24T13:31:38.807Z,3.07
2018-07-24T13:34:07.318Z,3.53
2018-07-24T13:36:35.532Z,2.90
2018-07-24T13:39:04.122Z,3.57
2018-07-24T13:41:31.795Z,3.03
2018-07-24T13:43:59.799Z,3.10
2018-07-24T13:46:27.413Z,2.80
2018-07-24T13:48:55.320Z,3.03
2018-07-24T13:51:22.958Z,3.03
2018-07-24T13:53:50.991Z,2.93
2018-07-24T13:56:19.174Z,3.30
2018-07-24T13:58:46.953Z,3.27
2018-07-24T14:01:15.224Z,3.10
2018-07-24T14:03:43.030Z,3.23
2018-07-24T14:06:10.950Z,2.93
2018-07-24T14:08:38.812Z,3.07
2018-07-24T14:11:07.079Z,3.10
2018-07-24T14:13:34.837Z,3.30
2018-07-24T14:16:02.520Z,3.40
2018-07-24T14:18:30.326Z,3.03
2018-07-24T14:20:57.953Z,3.57
2018-07-24T14:23:25.941Z,3.00
2018-07-24T14:25:53.785Z,3.73
2018-07-24T14:28:21.468Z,2.90
2018-07-24T14:30:49.256Z,3.30
2018-07-24T14:33:16.970Z,3.10
2018-07-24T14:35:45.201Z,3.50
2018-07-24T14:38:13.010Z,3.10
2018-07-24T14:40:41.109Z,3.37
2018-07-24T14:43:08.757Z,2.90
2018-07-24T14:45:37.100Z,2.83
2018-07-24T14:48:05.197Z,3.10
2018-07-24T14:50:33.166Z,3.20
2018-07-24T14:53:00.810Z,2.63
2018-07-24T14:55:29.210Z,3.20
2018-07-24T14:57:57.124Z,3.00
2018-07-24T15:00:25.145Z,3.00
2018-07-24T15:02:52.878Z,3.20
2018-07-24T15:05:20.619Z,3.03
2018-07-24T15:07:48.335Z,3.30
2018-07-24T15:10:15.958Z,3.47
2018-07-24T15:12:43.592Z,3.00
2018-07-24T15:15:11.667Z,2.90
2018-07-24T15:17:39.701Z,2.70
2018-07-24T15:20:07.485Z,3.37
2018-07-24T15:22:35.116Z,3.60
2018-07-24T15:25:02.826Z,3.53
2018-07-24T15:27:30.459Z,3.77
2018-07-24T15:29:58.429Z,3.20
2018-07-24T15:32:26.611Z,3.27
2018-07-24T15:34:54.543Z,3.03
2018-07-24T15:37:22.822Z,3.37
2018-07-24T15:39:50.481Z,3.80
2018-07-24T15:42:18.116Z,2.80
2018-07-24T15:44:46.177Z,3.13
2018-07-24T15:47:13.838Z,3.23
2018-07-24T15:49:41.505Z,3.10
2018-07-24T15:52:09.236Z,3.20
2018-07-24T15:54:36.845Z,2.83
2018-07-24T15:57:04.528Z,3.73
2018-07-24T15:59:32.436Z,3.53
2018-07-24T16:02:00.283Z,3.83
2018-07-24T16:04:28.254Z,3.73
2018-07-24T16:06:56.111Z,3.00
2018-07-24T16:09:23.730Z,3.20
2018-07-24T16:11:51.449Z,3.27
2018-07-24T16:14:19.340Z,3.10
2018-07-24T16:16:47.342Z,2.80
2018-07-24T16:19:14.978Z,2.70
2018-07-24T16:21:42.711Z,3.03
2018-07-24T16:24:10.437Z,3.83
2018-07-24T16:26:38.126Z,3.47
2018-07-24T16:29:06.295Z,3.30
2018-07-24T16:31:33.973Z,3.53
2018-07-24T16:34:01.942Z,3.30
2018-07-24T16:36:29.640Z,2.80
2018-07-24T16:38:57.566Z,3.57
2018-07-24T16:41:25.518Z,3.60
2018-07-24T16:43:53.240Z,4.30
2018-07-24T16:46:20.953Z,3.27
2018-07-24T16:48:48.599Z,4.07
2018-07-24T16:51:16.311Z,4.10
2018-07-24T16:53:43.978Z,4.30
2018-07-24T16:56:14.393Z,3.87
2018-07-24T16:58:42.507Z,3.37
2018-07-24T17:01:10.196Z,3.77
2018-07-24T17:03:38.375Z,4.00
2018-07-24T17:06:06.037Z,3.93
2018-07-24T17:08:33.994Z,3.80
2018-07-24T17:11:02.264Z,3.73
2018-07-24T17:13:30.274Z,3.90
2018-07-24T17:15:57.904Z,3.20
2018-07-24T17:18:25.594Z,3.90
2018-07-24T17:20:53.601Z,4.07
2018-07-24T17:23:21.275Z,3.57
2018-07-24T17:25:49.636Z,3.47
2018-07-24T17:28:17.748Z,2.90
2018-07-24T17:30:45.426Z,3.50
2018-07-24T17:33:13.386Z,4.03
2018-07-24T17:35:41.798Z,4.47
2018-07-24T17:38:10.149Z,4.07
2018-07-24T17:40:38.185Z,3.87
2018-07-24T17:43:05.883Z,4.33
2018-07-24T17:45:33.554Z,4.47
2018-07-24T17:48:01.371Z,4.43
2018-07-24T17:50:29.407Z,4.43
2018-07-24T17:52:57.272Z,4.50
2018-07-24T17:55:24.977Z,3.93
2018-07-24T17:57:52.677Z,3.70
2018-07-24T18:00:20.439Z,3.77
2018-07-24T18:02:48.146Z,3.80
2018-07-24T18:05:15.889Z,4.20
2018-07-24T18:07:43.577Z,4.40
2018-07-24T18:10:11.287Z,4.90
2018-07-24T18:12:39.064Z,4.30
2018-07-24T18:15:06.854Z,4.10
2018-07-24T18:17:34.912Z,4.03
2018-07-24T18:20:07.732Z,3.67
2018-07-24T18:22:36.106Z,3.70
2018-07-24T18:25:03.940Z,3.53
2018-07-24T18:27:31.778Z,3.77
2018-07-24T18:29:59.835Z,4.20
2018-07-24T18:32:27.613Z,4.27
2018-07-24T18:34:55.588Z,4.70
2018-07-24T18:37:23.364Z,4.03
2018-07-24T18:39:51.133Z,3.57
2018-07-24T18:42:19.284Z,4.43
2018-07-24T18:44:47.025Z,4.00
2018-07-24T18:47:14.858Z,4.17
2018-07-24T18:49:42.703Z,3.90
2018-07-24T18:52:10.419Z,4.67
2018-07-24T18:54:38.430Z,3.97
2018-07-24T18:57:06.204Z,3.63
2018-07-24T18:59:34.281Z,4.07
2018-07-24T19:02:02.252Z,4.43
2018-07-24T19:04:30.344Z,3.93
2018-07-24T19:06:58.414Z,3.77
2018-07-24T19:09:26.746Z,4.10
2018-07-24T19:11:54.507Z,4.30
2018-07-24T19:14:22.661Z,3.80
2018-07-24T19:16:50.497Z,3.83
2018-07-24T19:19:18.223Z,4.63
2018-07-24T19:21:45.974Z,4.40
2018-07-24T19:24:13.730Z,3.83
2018-07-24T19:26:41.955Z,3.70
2018-07-24T19:29:09.680Z,3.80
2018-07-24T19:31:37.779Z,4.10
2018-07-24T19:34:05.644Z,5.77
2018-07-24T19:36:33.527Z,4.90
2018-07-24T19:39:01.226Z,4.30
2018-07-24T19:41:28.880Z,4.97
2018-07-24T19:43:56.601Z,4.37
2018-07-24T19:46:24.254Z,4.17
2018-07-24T19:48:51.905Z,4.57
2018-07-24T19:51:20.297Z,4.70
2018-07-24T19:53:47.933Z,4.53
2018-07-24T19:56:15.548Z,4.13
2018-07-24T19:58:43.560Z,4.23
2018-07-24T20:01:11.575Z,4.43
2018-07-24T20:03:39.288Z,4.83
2018-07-24T20:06:07.413Z,3.97
2018-07-24T20:08:35.449Z,4.10
2018-07-24T20:11:03.104Z,4.20
2018-07-24T20:13:30.745Z,4.77
2018-07-24T20:15:58.636Z,3.90
2018-07-24T20:18:26.682Z,3.80
2018-07-24T20:20:54.420Z,3.70
2018-07-24T20:23:22.117Z,4.57
2018-07-24T20:25:49.786Z,3.97
2018-07-24T20:28:17.497Z,4.30
2018-07-24T20:30:46.013Z,3.83
2018-07-24T20:33:13.895Z,4.10
2018-07-24T20:35:41.600Z,4.50
2018-07-24T20:38:09.237Z,4.27
2018-07-24T20:40:36.896Z,4.30
2018-07-24T20:43:04.945Z,4.17
2018-07-24T20:45:32.903Z,4.37
2018-07-24T20:48:00.711Z,4.70
2018-07-24T20:50:28.372Z,3.70
2018-07-24T20:52:56.138Z,4.53
2018-07-24T20:55:23.821Z,4.40
2018-07-24T20:57:51.753Z,4.20
2018-07-24T21:00:19.674Z,3.77
2018-07-24T21:02:47.354Z,4.87
2018-07-24T21:05:15.499Z,3.90
2018-07-24T21:07:43.143Z,4.37
2018-07-24T21:10:18.854Z,3.70
2018-07-24T21:12:47.902Z,4.50
2018-07-24T21:15:16.173Z,4.17
2018-07-24T21:17:43.884Z,4.40
2018-07-24T21:20:11.716Z,4.30
2018-07-24T21:22:39.582Z,4.50
2018-07-24T21:25:07.828Z,4.40
2018-07-24T21:27:35.989Z,4.10
2018-07-24T21:30:04.456Z,3.67
2018-07-24T21:32:32.402Z,3.60
2018-07-24T21:35:00.737Z,3.60
2018-07-24T21:37:28.401Z,4.00
2018-07-24T21:39:56.248Z,4.10
2018-07-24T21:42:24.331Z,4.13
2018-07-24T21:44:51.896Z,4.37
2018-07-24T21:47:20.108Z,3.20
2018-07-24T21:49:47.744Z,3.93
2018-07-24T21:52:15.480Z,4.00
2018-07-24T21:54:43.398Z,3.63
2018-07-24T21:57:11.294Z,4.23
2018-07-24T21:59:39.441Z,3.50
2018-07-24T22:02:07.119Z,4.30
2018-07-24T22:04:35.395Z,3.80
2018-07-24T22:07:03.017Z,4.17
2018-07-24T22:09:30.905Z,4.00
2018-07-24T22:11:58.528Z,3.90
2018-07-24T22:14:26.418Z,4.50
2018-07-24T22:16:54.110Z,3.77
2018-07-24T22:19:22.378Z,3.80
2018-07-24T22:21:50.294Z,4.03
2018-07-24T22:24:17.973Z,3.80
2018-07-24T22:26:45.736Z,4.50
2018-07-24T22:29:13.601Z,3.83
2018-07-24T22:31:41.278Z,3.83
2018-07-24T22:34:09.152Z,4.70
2018-07-24T22:36:37.051Z,4.13
2018-07-24T22:39:08.067Z,3.97
2018-07-24T22:41:35.689Z,3.80
2018-07-24T22:44:03.360Z,4.23
2018-07-24T22:46:31.439Z,3.77
2018-07-24T22:48:59.082Z,4.37
2018-07-24T22:51:26.996Z,3.97
2018-07-24T22:53:54.904Z,4.00
2018-07-24T22:56:22.533Z,4.00
2018-07-24T22:58:50.325Z,3.90
2018-07-24T23:01:17.962Z,3.97
2018-07-24T23:03:46.646Z,4.60
2018-07-24T23:06:14.333Z,4.10
2018-07-24T23:08:42.222Z,3.90
2018-07-24T23:11:09.929Z,4.20
2018-07-24T23:13:38.150Z,4.10
2018-07-24T23:16:05.781Z,4.23
2018-07-24T23:18:33.467Z,4.30
2018-07-24T23:21:01.548Z,4.20
2018-07-24T23:23:29.258Z,4.10
2018-07-24T23:25:56.918Z,3.57
2018-07-24T23:28:24.545Z,3.87
2018-07-24T23:30:52.298Z,4.37
2018-07-24T23:33:20.734Z,4.60
2018-07-24T23:35:48.336Z,4.37
2018-07-24T23:38:16.566Z,3.87
2018-07-24T23:40:44.529Z,3.93
2018-07-24T23:43:12.149Z,3.73
2018-07-24T23:45:40.672Z,4.30
2018-07-24T23:48:08.585Z,4.30
2018-07-24T23:50:36.469Z,4.20
2018-07-24T23:53:04.168Z,3.97
2018-07-24T23:55:34.443Z,3.93
2018-07-24T23:58:02.765Z,3.50
